createdAt,value
2022-10-05T00:01:53.088Z,6.33
2022-10-05T00:04:22.509Z,5.63
2022-10-05T00:07:25.370Z,5.73
2022-10-05T00:09:57.787Z,5.83
2022-10-05T00:12:26.769Z,6.17
2022-10-05T00:14:59.176Z,5.17
2022-10-05T00:17:28.910Z,5.60
2022-10-05T00:19:55.404Z,5.83
2022-10-05T00:22:30.966Z,5.10
2022-10-05T00:25:03.053Z,5.63
2022-10-05T00:27:36.518Z,6.20
2022-10-05T00:30:14.820Z,6.20
2022-10-05T00:32:41.349Z,5.50
2022-10-05T00:35:09.153Z,6.13
2022-10-05T00:37:35.658Z,5.63
2022-10-05T00:40:03.599Z,5.33
2022-10-05T00:42:59.554Z,6.10
2022-10-05T00:45:48.999Z,5.47
2022-10-05T00:48:33.793Z,5.33
2022-10-05T00:51:09.413Z,6.17
2022-10-05T00:53:54.611Z,6.00
2022-10-05T00:56:30.509Z,6.00
2022-10-05T00:59:19.151Z,5.20
2022-10-05T01:01:57.787Z,5.40
2022-10-05T01:04:34.545Z,5.80
2022-10-05T01:07:15.899Z,5.43
2022-10-05T01:10:20.753Z,4.50
2022-10-05T01:13:25.993Z,5.53
2022-10-05T01:18:32.087Z,5.53
2022-10-05T01:21:10.474Z,5.10
2022-10-05T01:24:14.789Z,6.20
2022-10-05T01:26:47.417Z,4.40
2022-10-05T01:29:22.276Z,5.63
2022-10-05T01:32:08.789Z,5.10
2022-10-05T01:34:43.090Z,5.37
2022-10-05T01:37:23.555Z,5.97
2022-10-05T01:40:14.605Z,6.00
2022-10-05T01:43:09.817Z,5.73
2022-10-05T01:45:48.302Z,5.47
2022-10-05T01:48:26.662Z,5.60
2022-10-05T01:51:37.811Z,4.30
2022-10-05T01:54:13.895Z,4.90
2022-10-05T01:56:50.557Z,5.13
2022-10-05T01:59:47.690Z,5.60
2022-10-05T02:02:17.312Z,5.80
2022-10-05T02:05:08.415Z,5.20
2022-10-05T02:07:46.677Z,5.60
2022-10-05T02:10:28.306Z,5.77
2022-10-05T02:13:09.371Z,5.90
2022-10-05T02:15:54.438Z,5.80
2022-10-05T02:18:29.930Z,6.47
2022-10-05T02:20:59.314Z,6.50
2022-10-05T02:23:30.899Z,5.97
2022-10-05T02:25:58.310Z,6.17
2022-10-05T02:28:43.985Z,5.90
2022-10-05T02:31:13.981Z,5.43
2022-10-05T02:33:40.471Z,6.27
2022-10-05T02:36:15.927Z,5.70
2022-10-05T02:39:00.806Z,5.40
2022-10-05T02:41:49.960Z,6.20
2022-10-05T02:44:48.418Z,6.30
2022-10-05T02:47:28.303Z,6.83
2022-10-05T02:50:12.205Z,6.67
2022-10-05T02:53:06.387Z,6.40
2022-10-05T02:55:42.691Z,7.00
2022-10-05T02:58:09.030Z,6.57
2022-10-05T03:00:46.268Z,6.83
2022-10-05T03:03:57.281Z,6.70
2022-10-05T03:06:29.014Z,6.57
2022-10-05T03:09:02.279Z,7.90
2022-10-05T03:12:05.098Z,7.20
2022-10-05T03:14:36.797Z,7.07
2022-10-05T03:17:21.472Z,8.10
2022-10-05T03:20:02.672Z,7.70
2022-10-05T03:22:50.194Z,8.23
2022-10-05T03:25:34.824Z,8.50
2022-10-05T03:28:11.269Z,8.73
2022-10-05T03:30:52.354Z,9.40
2022-10-05T03:33:36.415Z,9.30
2022-10-05T03:36:16.609Z,10.47
2022-10-05T03:39:19.120Z,11.40
2022-10-05T03:41:58.435Z,8.40
2022-10-05T03:44:34.721Z,8.83
2022-10-05T03:47:19.113Z,8.40
2022-10-05T03:50:01.435Z,7.93
2022-10-05T03:52:37.732Z,8.30
2022-10-05T03:55:17.193Z,7.77
2022-10-05T03:57:45.831Z,7.87
2022-10-05T04:00:16.158Z,8.07
2022-10-05T04:02:53.130Z,8.70
2022-10-05T04:05:26.889Z,10.57
2022-10-05T04:08:47.890Z,10.90
2022-10-05T04:11:42.977Z,9.50
2022-10-05T04:14:15.764Z,8.30
2022-10-05T04:16:47.348Z,9.27
2022-10-05T04:19:30.969Z,9.17
2022-10-05T04:22:07.642Z,10.67
2022-10-05T04:24:46.562Z,8.83
2022-10-05T04:27:24.831Z,8.63
2022-10-05T04:29:58.194Z,7.77
2022-10-05T04:32:31.371Z,6.97
2022-10-05T04:35:19.705Z,7.83
2022-10-05T04:37:48.890Z,8.80
2022-10-05T04:40:52.695Z,8.90
2022-10-05T04:43:30.628Z,8.23
2022-10-05T04:46:06.326Z,8.50
2022-10-05T04:48:38.578Z,8.53
2022-10-05T04:51:38.290Z,8.43
2022-10-05T04:54:13.792Z,8.50
2022-10-05T04:56:45.828Z,7.67
2022-10-05T04:59:46.489Z,7.40
2022-10-05T05:02:34.346Z,7.50
2022-10-05T05:05:35.653Z,7.10
2022-10-05T05:08:33.547Z,7.07
2022-10-05T05:11:22.388Z,7.20
2022-10-05T05:14:14.269Z,7.30
2022-10-05T05:16:43.670Z,7.07
2022-10-05T05:19:42.366Z,6.97
2022-10-05T05:22:33.754Z,8.40
2022-10-05T05:25:19.202Z,6.80
2022-10-05T05:28:01.075Z,7.00
2022-10-05T05:30:45.934Z,6.40
2022-10-05T05:33:21.422Z,6.60
2022-10-05T05:36:06.641Z,7.67
2022-10-05T05:38:38.290Z,7.50
2022-10-05T05:41:11.974Z,6.20
2022-10-05T05:44:01.179Z,6.60
2022-10-05T05:47:01.896Z,6.60
2022-10-05T05:49:27.632Z,6.53
2022-10-05T05:52:00.724Z,7.07
2022-10-05T05:54:46.305Z,6.20
2022-10-05T05:57:27.427Z,7.13
2022-10-05T06:00:15.794Z,7.40
2022-10-05T06:02:52.820Z,7.97
2022-10-05T06:05:44.366Z,8.63
2022-10-05T06:08:23.436Z,7.30
2022-10-05T06:10:55.477Z,9.70
2022-10-05T06:13:31.314Z,8.80
2022-10-05T06:16:05.914Z,9.67
2022-10-05T06:18:33.122Z,7.27
2022-10-05T06:21:04.252Z,7.47
2022-10-05T06:23:46.107Z,7.17
2022-10-05T06:26:25.953Z,7.30
2022-10-05T06:29:00.823Z,7.53
2022-10-05T06:31:51.172Z,6.20
2022-10-05T06:34:43.792Z,6.43
2022-10-05T06:37:23.484Z,7.20
2022-10-05T06:40:00.733Z,7.43
2022-10-05T06:42:48.097Z,7.70
2022-10-05T06:45:32.016Z,8.63
2022-10-05T06:48:11.916Z,8.57
2022-10-05T06:50:58.062Z,8.50
2022-10-05T06:53:56.985Z,7.80
2022-10-05T06:56:36.283Z,8.80
2022-10-05T06:59:26.288Z,10.07
2022-10-05T07:02:40.312Z,8.80
2022-10-05T07:05:34.602Z,9.87
2022-10-05T07:08:48.580Z,10.53
2022-10-05T07:11:45.446Z,9.70
2022-10-05T07:14:36.760Z,9.53
2022-10-05T07:17:44.145Z,9.60
2022-10-05T07:20:32.155Z,11.10
2022-10-05T07:23:13.821Z,10.00
2022-10-05T07:25:48.439Z,10.60
2022-10-05T07:28:31.181Z,12.00
2022-10-05T07:31:09.336Z,11.50
2022-10-05T07:33:53.983Z,11.90
2022-10-05T07:36:50.934Z,11.70
2022-10-05T07:39:58.374Z,11.10
2022-10-05T07:42:50.604Z,11.43
2022-10-05T07:45:28.631Z,12.07
2022-10-05T07:47:57.960Z,14.50
2022-10-05T07:50:52.667Z,14.10
2022-10-05T07:53:25.623Z,12.47
2022-10-05T07:55:55.739Z,12.53
2022-10-05T07:58:29.697Z,13.47
2022-10-05T08:00:59.553Z,12.20
2022-10-05T08:03:28.709Z,11.40
2022-10-05T08:05:57.704Z,10.63
2022-10-05T08:08:44.985Z,10.77
2022-10-05T08:11:22.894Z,9.53
2022-10-05T08:14:00.059Z,9.43
2022-10-05T08:16:31.171Z,9.60
2022-10-05T08:19:02.535Z,11.37
2022-10-05T08:21:43.298Z,10.50
2022-10-05T08:24:34.283Z,9.53
2022-10-05T08:27:16.039Z,10.77
2022-10-05T08:29:55.097Z,8.47
2022-10-05T08:32:51.508Z,8.63
2022-10-05T08:35:28.145Z,7.97
2022-10-05T08:37:55.141Z,7.40
2022-10-05T08:40:32.006Z,7.93
2022-10-05T08:43:10.076Z,7.13
2022-10-05T08:45:42.522Z,7.63
2022-10-05T08:49:04.644Z,5.80
2022-10-05T08:51:41.753Z,6.10
2022-10-05T08:54:26.827Z,6.57
2022-10-05T08:57:14.952Z,5.30
2022-10-05T09:00:00.142Z,5.77
2022-10-05T09:02:44.594Z,6.70
2022-10-05T09:05:49.496Z,5.57
2022-10-05T09:08:37.477Z,5.73
2022-10-05T09:11:12.514Z,5.77
2022-10-05T09:13:44.953Z,6.00
2022-10-05T09:16:17.551Z,5.17
2022-10-05T09:19:07.262Z,5.77
2022-10-05T09:21:42.458Z,5.60
2022-10-05T09:24:14.621Z,5.53
2022-10-05T09:26:40.972Z,5.13
2022-10-05T09:29:22.643Z,4.70
2022-10-05T09:32:17.308Z,5.17
2022-10-05T09:35:05.709Z,4.47
2022-10-05T09:38:17.397Z,4.50
2022-10-05T09:41:16.006Z,4.47
2022-10-05T09:44:21.996Z,4.60
2022-10-05T09:46:57.324Z,4.10
2022-10-05T09:49:29.781Z,4.23
2022-10-05T09:52:26.661Z,4.50
2022-10-05T09:55:20.024Z,8.93
2022-10-05T09:57:55.206Z,4.80
2022-10-05T10:00:36.923Z,4.60
2022-10-05T10:03:34.881Z,4.27
2022-10-05T10:06:33.669Z,3.67
2022-10-05T10:09:09.580Z,4.10
2022-10-05T10:12:09.387Z,3.93
2022-10-05T10:15:13.988Z,3.70
2022-10-05T10:17:52.752Z,3.37
2022-10-05T10:20:41.138Z,3.50
2022-10-05T10:23:16.017Z,3.53
2022-10-05T10:26:04.008Z,3.53
2022-10-05T10:28:52.315Z,2.93
2022-10-05T10:31:44.230Z,2.90
2022-10-05T10:34:38.677Z,3.27
2022-10-05T10:37:42.337Z,3.00
2022-10-05T10:40:29.302Z,4.13
2022-10-05T10:42:56.203Z,4.50
2022-10-05T10:45:28.726Z,3.53
2022-10-05T10:48:11.245Z,2.50
2022-10-05T10:50:49.903Z,2.50
2022-10-05T10:53:34.674Z,2.10
2022-10-05T10:56:29.153Z,2.13
2022-10-05T10:59:29.243Z,2.70
2022-10-05T11:02:22.894Z,2.40
2022-10-05T11:05:04.871Z,2.57
2022-10-05T11:07:49.730Z,2.60
2022-10-05T11:10:31.022Z,2.63
2022-10-05T11:13:16.317Z,1.77
2022-10-05T11:16:00.775Z,1.50
2022-10-05T11:18:33.095Z,2.30
2022-10-05T11:21:21.671Z,2.87
2022-10-05T11:24:20.291Z,2.60
2022-10-05T11:27:08.941Z,1.70
2022-10-05T11:29:47.562Z,2.23
2022-10-05T11:32:16.943Z,2.50
2022-10-05T11:34:46.328Z,3.13
2022-10-05T11:37:37.729Z,2.77
2022-10-05T11:40:36.327Z,2.60
2022-10-05T11:43:09.882Z,2.00
2022-10-05T11:45:48.375Z,2.37
2022-10-05T11:48:53.332Z,2.03
2022-10-05T11:51:34.644Z,1.97
2022-10-05T11:54:21.497Z,2.20
2022-10-05T11:57:00.484Z,2.60
2022-10-05T11:59:34.509Z,2.30
2022-10-05T12:02:23.798Z,2.30
2022-10-05T12:04:50.126Z,2.87
2022-10-05T12:07:40.876Z,3.10
2022-10-05T12:10:21.165Z,2.00
2022-10-05T12:12:58.934Z,3.20
2022-10-05T12:15:31.895Z,2.37
2022-10-05T12:18:01.089Z,2.90
2022-10-05T12:20:33.475Z,2.60
2022-10-05T12:23:12.964Z,2.63
2022-10-05T12:25:45.961Z,3.50
2022-10-05T12:28:17.188Z,2.97
2022-10-05T12:30:57.643Z,2.53
2022-10-05T12:33:33.074Z,2.13
2022-10-05T12:36:07.901Z,2.77
2022-10-05T12:39:01.510Z,2.20
2022-10-05T12:41:37.709Z,2.60
2022-10-05T12:44:25.723Z,3.93
2022-10-05T12:47:26.728Z,2.70
2022-10-05T12:50:16.924Z,2.50
2022-10-05T12:53:20.801Z,2.67
2022-10-05T12:56:03.998Z,2.90
2022-10-05T12:58:36.333Z,2.30
2022-10-05T13:01:18.850Z,2.53
2022-10-05T13:04:22.184Z,3.40
2022-10-05T13:07:10.846Z,2.57
2022-10-05T13:09:48.779Z,2.43
2022-10-05T13:12:42.448Z,2.30
2022-10-05T13:15:17.747Z,2.57
2022-10-05T13:17:56.264Z,3.63
2022-10-05T13:20:32.616Z,3.33
2022-10-05T13:23:26.431Z,3.23
2022-10-05T13:26:03.601Z,3.10
2022-10-05T13:28:33.343Z,2.50
2022-10-05T13:31:07.217Z,3.00
2022-10-05T13:33:55.467Z,3.50
2022-10-05T13:36:31.322Z,3.20
2022-10-05T13:39:14.694Z,2.90
2022-10-05T13:41:58.064Z,2.67
2022-10-05T13:44:44.687Z,2.40
2022-10-05T13:47:33.889Z,2.43
2022-10-05T13:50:06.441Z,2.70
2022-10-05T13:52:45.848Z,2.70
2022-10-05T13:55:30.410Z,2.83
2022-10-05T13:58:10.145Z,2.30
2022-10-05T14:00:50.382Z,2.43
2022-10-05T14:03:29.191Z,2.30
2022-10-05T14:05:58.843Z,2.23
2022-10-05T14:08:32.454Z,2.07
2022-10-05T14:10:58.988Z,2.63
2022-10-05T14:13:46.726Z,2.80
2022-10-05T14:16:13.275Z,2.87
2022-10-05T14:18:52.501Z,2.93
2022-10-05T14:21:24.893Z,2.47
2022-10-05T14:23:52.390Z,2.83
2022-10-05T14:26:39.109Z,2.57
2022-10-05T14:29:35.793Z,2.67
2022-10-05T14:32:12.935Z,2.10
2022-10-05T14:34:45.009Z,2.30
2022-10-05T14:37:22.664Z,2.77
2022-10-05T14:39:51.984Z,2.30
2022-10-05T14:42:28.466Z,2.30
2022-10-05T14:45:14.171Z,2.47
2022-10-05T14:47:49.720Z,2.13
2022-10-05T14:50:26.019Z,2.40
2022-10-05T14:53:16.995Z,2.50
2022-10-05T14:56:18.520Z,2.50
2022-10-05T14:59:05.188Z,2.23
2022-10-05T15:01:36.728Z,2.37
2022-10-05T15:04:26.520Z,1.90
2022-10-05T15:07:05.653Z,2.80
2022-10-05T15:09:38.010Z,2.20
2022-10-05T15:12:04.687Z,2.23
2022-10-05T15:14:35.788Z,2.10
2022-10-05T15:17:27.536Z,2.90
2022-10-05T15:20:19.562Z,2.30
2022-10-05T15:23:24.412Z,2.80
2022-10-05T15:26:26.378Z,2.47
2022-10-05T15:29:01.712Z,2.20
2022-10-05T15:31:30.836Z,2.50
2022-10-05T15:34:07.955Z,3.07
2022-10-05T15:36:47.887Z,2.30
2022-10-05T15:39:35.115Z,2.30
2022-10-05T15:42:10.017Z,2.70
2022-10-05T15:45:00.376Z,2.67
2022-10-05T15:47:47.628Z,2.73
2022-10-05T15:50:27.254Z,3.03
2022-10-05T15:53:07.653Z,2.20
2022-10-05T15:55:43.519Z,2.93
2022-10-05T15:58:18.778Z,3.20
2022-10-05T16:00:49.201Z,2.90
2022-10-05T16:04:01.028Z,3.40
2022-10-05T16:06:56.552Z,2.90
2022-10-05T16:09:37.650Z,2.63
2022-10-05T16:12:25.695Z,2.77
2022-10-05T16:15:11.570Z,3.20
2022-10-05T16:18:14.499Z,3.10
2022-10-05T16:21:27.643Z,2.80
2022-10-05T16:24:15.778Z,3.10
2022-10-05T16:27:00.620Z,3.20
2022-10-05T16:29:51.547Z,3.20
2022-10-05T16:32:42.811Z,3.57
2022-10-05T16:35:16.528Z,2.90
2022-10-05T16:38:02.487Z,3.50
2022-10-05T16:41:19.540Z,4.20
2022-10-05T16:43:57.838Z,4.50
2022-10-05T16:46:30.063Z,4.40
2022-10-05T16:49:20.992Z,3.73
2022-10-05T16:52:06.573Z,4.00
2022-10-05T16:54:47.852Z,3.73
2022-10-05T16:57:26.116Z,5.10
2022-10-05T17:00:18.777Z,6.83
2022-10-05T17:03:04.909Z,10.67
2022-10-05T17:05:55.984Z,11.57
2022-10-05T17:09:08.502Z,8.90
2022-10-05T17:11:48.380Z,6.83
2022-10-05T17:14:37.682Z,5.83
2022-10-05T17:17:21.665Z,4.93
2022-10-05T17:20:03.962Z,6.63
2022-10-05T17:22:40.439Z,6.27
2022-10-05T17:25:15.953Z,5.03
2022-10-05T17:27:54.754Z,5.33
2022-10-05T17:30:37.597Z,4.27
2022-10-05T17:33:32.246Z,3.87
2022-10-05T17:36:08.443Z,3.30
2022-10-05T17:38:34.833Z,4.10
2022-10-05T17:41:05.394Z,4.00
2022-10-05T17:43:35.239Z,3.93
2022-10-05T17:46:06.844Z,5.27
2022-10-05T17:48:39.093Z,4.33
2022-10-05T17:51:42.367Z,4.20
2022-10-05T17:54:39.534Z,3.80
2022-10-05T17:57:05.844Z,4.67
2022-10-05T17:59:53.395Z,5.77
2022-10-05T18:02:19.821Z,5.30
2022-10-05T18:05:15.118Z,4.30
2022-10-05T18:08:13.721Z,4.20
2022-10-05T18:11:10.888Z,4.10
2022-10-05T18:13:43.823Z,4.00
2022-10-05T18:16:10.448Z,4.90
2022-10-05T18:18:42.790Z,5.10
2022-10-05T18:21:23.572Z,4.27
2022-10-05T18:23:52.685Z,5.13
2022-10-05T18:26:40.267Z,5.87
2022-10-05T18:29:38.734Z,5.17
2022-10-05T18:32:19.894Z,6.80
2022-10-05T18:35:02.523Z,5.17
2022-10-05T18:37:41.317Z,4.77
2022-10-05T18:40:32.213Z,6.93
2022-10-05T18:43:37.260Z,6.40
2022-10-05T18:46:30.323Z,5.07
2022-10-05T18:49:24.837Z,5.00
2022-10-05T18:52:05.638Z,5.40
2022-10-05T18:54:57.108Z,5.00
2022-10-05T18:57:54.961Z,4.53
2022-10-05T19:00:23.547Z,5.10
2022-10-05T19:02:52.867Z,4.80
2022-10-05T19:05:48.327Z,4.60
2022-10-05T19:08:42.826Z,5.50
2022-10-05T19:11:23.034Z,4.50
2022-10-05T19:14:07.461Z,6.30
2022-10-05T19:17:04.194Z,4.50
2022-10-05T19:19:57.517Z,4.50
2022-10-05T19:22:56.163Z,4.43
2022-10-05T19:25:37.401Z,5.10
2022-10-05T19:28:21.984Z,5.00
2022-10-05T19:31:07.206Z,4.63
2022-10-05T19:33:42.408Z,4.70
2022-10-05T19:36:32.404Z,3.90
2022-10-05T19:39:14.153Z,4.80
2022-10-05T19:41:52.717Z,4.00
2022-10-05T19:44:45.886Z,4.13
2022-10-05T19:47:32.014Z,4.37
2022-10-05T19:50:01.849Z,4.20
2022-10-05T19:52:40.618Z,4.17
2022-10-05T19:55:26.327Z,5.40
2022-10-05T19:58:00.459Z,4.77
2022-10-05T20:00:32.740Z,4.50
2022-10-05T20:03:27.462Z,4.40
2022-10-05T20:05:56.233Z,5.10
2022-10-05T20:08:27.087Z,3.60
2022-10-05T20:11:09.652Z,4.33
2022-10-05T20:13:37.046Z,3.27
2022-10-05T20:16:26.212Z,3.33
2022-10-05T20:19:11.526Z,4.40
2022-10-05T20:21:59.729Z,4.10
2022-10-05T20:24:28.523Z,3.60
2022-10-05T20:27:06.189Z,3.60
2022-10-05T20:29:37.909Z,3.87
2022-10-05T20:32:08.804Z,3.40
2022-10-05T20:34:41.318Z,3.60
2022-10-05T20:37:15.544Z,3.57
2022-10-05T20:39:42.423Z,3.43
2022-10-05T20:42:10.145Z,3.77
2022-10-05T20:44:37.473Z,2.73
2022-10-05T20:47:05.502Z,2.77
2022-10-05T20:49:32.213Z,2.33
2022-10-05T20:51:59.471Z,3.37
2022-10-05T20:54:27.028Z,3.30
2022-10-05T20:56:56.489Z,3.87
2022-10-05T20:59:24.176Z,3.30
2022-10-05T21:01:51.548Z,2.77
2022-10-05T21:04:23.113Z,3.43
2022-10-05T21:06:49.755Z,3.80
2022-10-05T21:09:19.463Z,3.37
2022-10-05T21:11:47.438Z,2.60
2022-10-05T21:14:14.248Z,2.47
2022-10-05T21:16:41.354Z,2.33
2022-10-05T21:19:09.801Z,2.70
2022-10-05T21:21:36.969Z,2.80
2022-10-05T21:24:03.839Z,2.40
2022-10-05T21:26:31.051Z,2.40
2022-10-05T21:28:58.528Z,2.70
2022-10-05T21:31:26.380Z,2.40
2022-10-05T21:33:53.217Z,2.90
2022-10-05T21:36:23.837Z,3.20
2022-10-05T21:38:52.922Z,2.50
2022-10-05T21:41:20.006Z,2.50
2022-10-05T21:43:46.905Z,3.03
2022-10-05T21:46:21.069Z,2.70
2022-10-05T21:48:48.104Z,2.30
2022-10-05T21:51:16.894Z,2.53
2022-10-05T21:53:49.655Z,2.13
2022-10-05T21:56:18.231Z,2.57
2022-10-05T21:58:46.611Z,2.30
2022-10-05T22:01:13.108Z,1.87
2022-10-05T22:03:39.525Z,2.30
2022-10-05T22:06:06.791Z,1.93
2022-10-05T22:08:34.148Z,2.40
2022-10-05T22:11:01.369Z,1.93
2022-10-05T22:13:38.967Z,2.20
2022-10-05T22:16:05.541Z,2.30
2022-10-05T22:18:32.241Z,2.00
2022-10-05T22:20:58.779Z,2.43
2022-10-05T22:23:25.190Z,2.33
2022-10-05T22:25:51.659Z,2.37
2022-10-05T22:28:18.108Z,2.50
2022-10-05T22:30:45.430Z,2.17
2022-10-05T22:33:13.201Z,2.70
2022-10-05T22:35:39.857Z,2.63
2022-10-05T22:38:06.286Z,2.57
2022-10-05T22:40:32.689Z,2.70
2022-10-05T22:42:59.129Z,2.60
2022-10-05T22:45:30.335Z,3.23
2022-10-05T22:47:58.777Z,2.63
2022-10-05T22:50:25.186Z,2.60
2022-10-05T22:52:52.439Z,2.00
2022-10-05T22:55:18.868Z,2.50
2022-10-05T22:57:45.313Z,2.90
2022-10-05T23:00:13.030Z,2.67
2022-10-05T23:02:42.090Z,2.67
2022-10-05T23:05:10.444Z,2.50
2022-10-05T23:07:41.480Z,2.73
2022-10-05T23:10:10.957Z,2.17
2022-10-05T23:12:37.436Z,2.93
2022-10-05T23:15:05.357Z,2.80
2022-10-05T23:17:33.659Z,2.80
2022-10-05T23:20:00.033Z,2.60
2022-10-05T23:22:26.530Z,2.63
2022-10-05T23:24:53.061Z,3.17
2022-10-05T23:27:20.573Z,1.93
2022-10-05T23:29:46.989Z,1.43
2022-10-05T23:32:13.351Z,1.20
2022-10-05T23:34:39.743Z,1.00
2022-10-05T23:37:06.131Z,1.20
2022-10-05T23:39:32.525Z,0.93
2022-10-05T23:42:00.315Z,1.10
2022-10-05T23:44:26.689Z,1.00
2022-10-05T23:46:53.085Z,1.00
2022-10-05T23:49:19.483Z,1.07
2022-10-05T23:51:45.917Z,0.87
2022-10-05T23:54:12.301Z,1.03
2022-10-05T23:56:38.841Z,0.90
2022-10-05T23:59:05.223Z,0.90
